sensor_id;sensor_type;location;lat;lon;timestamp;P1;durP1;ratioP1;P2;durP2;ratioP2
80586;SDS011;69943;20.850;106.728;2024-03-23T01:03:22;21.40;;;10.50;;
80586;SDS011;69943;20.850;106.728;2024-03-23T01:06:15;18.70;;;9.60;;
80586;SDS011;69943;20.850;106.728;2024-03-23T01:09:07;25.20;;;10.30;;
80586;SDS011;69943;20.850;106.728;2024-03-23T01:12:01;28.40;;;9.50;;
80586;SDS011;69943;20.850;106.728;2024-03-23T01:14:54;19.20;;;8.90;;
80586;SDS011;69943;20.850;106.728;2024-03-23T01:17:27;22.90;;;9.30;;
80586;SDS011;69943;20.850;106.728;2024-03-23T01:20:00;23.70;;;9.60;;
80586;SDS011;69943;20.850;106.728;2024-03-23T01:22:34;20.60;;;9.80;;
80586;SDS011;69943;20.850;106.728;2024-03-23T01:25:06;23.20;;;10.30;;
80586;SDS011;69943;20.850;106.728;2024-03-23T01:27:40;22.50;;;10.30;;
80586;SDS011;69943;20.850;106.728;2024-03-23T01:30:13;19.00;;;9.50;;
80586;SDS011;69943;20.850;106.728;2024-03-23T01:32:47;24.00;;;8.90;;
80586;SDS011;69943;20.850;106.728;2024-03-23T01:35:19;22.30;;;9.00;;
80586;SDS011;69943;20.850;106.728;2024-03-23T01:37:53;19.40;;;9.30;;
80586;SDS011;69943;20.850;106.728;2024-03-23T01:40:26;20.60;;;8.80;;
80586;SDS011;69943;20.850;106.728;2024-03-23T01:43:05;21.70;;;9.40;;
80586;SDS011;69943;20.850;106.728;2024-03-23T01:45:40;21.50;;;9.70;;
80586;SDS011;69943;20.850;106.728;2024-03-23T01:48:13;23.00;;;10.20;;
80586;SDS011;69943;20.850;106.728;2024-03-23T01:50:46;18.20;;;9.60;;
80586;SDS011;69943;20.850;106.728;2024-03-23T01:53:19;21.80;;;9.30;;
80586;SDS011;69943;20.850;106.728;2024-03-23T01:55:54;16.70;;;7.70;;
80586;SDS011;69943;20.850;106.728;2024-03-23T01:58:28;15.50;;;9.30;;
80586;SDS011;69943;20.850;106.728;2024-03-23T02:01:01;20.60;;;8.80;;
80586;SDS011;69943;20.850;106.728;2024-03-23T02:03:35;21.30;;;9.30;;
80586;SDS011;69943;20.850;106.728;2024-03-23T02:06:08;19.20;;;9.10;;
80586;SDS011;69943;20.850;106.728;2024-03-23T02:08:41;24.70;;;10.00;;
80586;SDS011;69943;20.850;106.728;2024-03-23T02:11:22;19.20;;;8.80;;
80586;SDS011;69943;20.850;106.728;2024-03-23T02:13:55;20.00;;;10.00;;
80586;SDS011;69943;20.850;106.728;2024-03-23T02:16:29;19.00;;;8.60;;
80586;SDS011;69943;20.850;106.728;2024-03-23T02:19:02;17.30;;;8.60;;
80586;SDS011;69943;20.850;106.728;2024-03-23T02:21:35;22.30;;;9.50;;
80586;SDS011;69943;20.850;106.728;2024-03-23T02:24:09;21.90;;;9.70;;
80586;SDS011;69943;20.850;106.728;2024-03-23T02:26:41;25.80;;;9.60;;
80586;SDS011;69943;20.850;106.728;2024-03-23T02:29:15;20.50;;;9.90;;
80586;SDS011;69943;20.850;106.728;2024-03-23T02:31:48;18.00;;;9.00;;
80586;SDS011;69943;20.850;106.728;2024-03-23T02:34:21;13.70;;;9.00;;
80586;SDS011;69943;20.850;106.728;2024-03-23T02:36:54;25.70;;;9.90;;
80586;SDS011;69943;20.850;106.728;2024-03-23T02:39:28;17.60;;;9.00;;
80586;SDS011;69943;20.850;106.728;2024-03-23T02:42:02;17.50;;;9.70;;
80586;SDS011;69943;20.850;106.728;2024-03-23T02:44:35;19.60;;;10.00;;
80586;SDS011;69943;20.850;106.728;2024-03-23T02:47:08;23.00;;;10.20;;
80586;SDS011;69943;20.850;106.728;2024-03-23T02:49:41;18.60;;;9.40;;
80586;SDS011;69943;20.850;106.728;2024-03-23T02:52:14;18.50;;;9.30;;
80586;SDS011;69943;20.850;106.728;2024-03-23T02:54:47;21.00;;;10.00;;
80586;SDS011;69943;20.850;106.728;2024-03-23T02:57:21;16.40;;;10.10;;
80586;SDS011;69943;20.850;106.728;2024-03-23T02:59:54;18.30;;;8.70;;
80586;SDS011;69943;20.850;106.728;2024-03-23T03:02:28;19.50;;;9.30;;
80586;SDS011;69943;20.850;106.728;2024-03-23T03:05:01;17.10;;;8.80;;
80586;SDS011;69943;20.850;106.728;2024-03-23T03:07:35;26.20;;;10.80;;
80586;SDS011;69943;20.850;106.728;2024-03-23T03:10:10;23.50;;;9.50;;
80586;SDS011;69943;20.850;106.728;2024-03-23T03:12:43;24.80;;;10.30;;
80586;SDS011;69943;20.850;106.728;2024-03-23T03:15:16;21.20;;;9.40;;
80586;SDS011;69943;20.850;106.728;2024-03-23T03:17:50;19.00;;;9.10;;
80586;SDS011;69943;20.850;106.728;2024-03-23T03:20:24;21.30;;;11.00;;
80586;SDS011;69943;20.850;106.728;2024-03-23T03:22:57;18.20;;;8.70;;
80586;SDS011;69943;20.850;106.728;2024-03-23T03:25:30;17.60;;;9.20;;
80586;SDS011;69943;20.850;106.728;2024-03-23T03:28:03;19.50;;;10.20;;
80586;SDS011;69943;20.850;106.728;2024-03-23T03:30:37;20.50;;;9.90;;
80586;SDS011;69943;20.850;106.728;2024-03-23T03:33:10;14.80;;;9.10;;
80586;SDS011;69943;20.850;106.728;2024-03-23T03:35:43;22.20;;;9.90;;
80586;SDS011;69943;20.850;106.728;2024-03-23T03:38:16;22.80;;;10.00;;
80586;SDS011;69943;20.850;106.728;2024-03-23T03:40:50;25.20;;;11.40;;
80586;SDS011;69943;20.850;106.728;2024-03-23T03:43:24;23.90;;;10.50;;
80586;SDS011;69943;20.850;106.728;2024-03-23T03:45:58;22.40;;;11.30;;
80586;SDS011;69943;20.850;106.728;2024-03-23T03:48:32;22.50;;;11.90;;
80586;SDS011;69943;20.850;106.728;2024-03-23T03:51:04;28.50;;;10.70;;
80586;SDS011;69943;20.850;106.728;2024-03-23T03:53:38;19.90;;;10.60;;
80586;SDS011;69943;20.850;106.728;2024-03-23T03:56:11;22.00;;;11.10;;
80586;SDS011;69943;20.850;106.728;2024-03-23T03:58:43;21.50;;;10.70;;
80586;SDS011;69943;20.850;106.728;2024-03-23T04:01:16;23.00;;;11.50;;
80586;SDS011;69943;20.850;106.728;2024-03-23T04:03:49;22.20;;;10.90;;
80586;SDS011;69943;20.850;106.728;2024-03-23T04:06:22;26.80;;;10.70;;
80586;SDS011;69943;20.850;106.728;2024-03-23T04:08:55;22.30;;;10.40;;
80586;SDS011;69943;20.850;106.728;2024-03-23T04:11:28;28.20;;;10.60;;
80586;SDS011;69943;20.850;106.728;2024-03-23T04:14:01;20.10;;;10.60;;
80586;SDS011;69943;20.850;106.728;2024-03-23T04:16:34;21.70;;;10.10;;
80586;SDS011;69943;20.850;106.728;2024-03-23T04:19:07;19.10;;;10.90;;
80586;SDS011;69943;20.850;106.728;2024-03-23T04:21:40;20.40;;;10.10;;
80586;SDS011;69943;20.850;106.728;2024-03-23T04:24:13;23.90;;;10.90;;
80586;SDS011;69943;20.850;106.728;2024-03-23T04:26:47;16.40;;;9.30;;
80586;SDS011;69943;20.850;106.728;2024-03-23T04:29:21;21.80;;;10.80;;
80586;SDS011;69943;20.850;106.728;2024-03-23T04:31:54;21.30;;;10.30;;
80586;SDS011;69943;20.850;106.728;2024-03-23T04:34:27;21.80;;;10.60;;
80586;SDS011;69943;20.850;106.728;2024-03-23T04:37:01;18.60;;;9.60;;
80586;SDS011;69943;20.850;106.728;2024-03-23T04:39:35;27.90;;;11.00;;
80586;SDS011;69943;20.850;106.728;2024-03-23T04:42:09;17.40;;;9.70;;
80586;SDS011;69943;20.850;106.728;2024-03-23T04:44:42;18.00;;;9.60;;
80586;SDS011;69943;20.850;106.728;2024-03-23T04:47:16;23.70;;;10.50;;
80586;SDS011;69943;20.850;106.728;2024-03-23T04:49:49;19.10;;;9.80;;
80586;SDS011;69943;20.850;106.728;2024-03-23T04:52:22;17.40;;;9.50;;
80586;SDS011;69943;20.850;106.728;2024-03-23T04:54:55;22.90;;;11.20;;
80586;SDS011;69943;20.850;106.728;2024-03-23T04:57:29;20.90;;;10.10;;
80586;SDS011;69943;20.850;106.728;2024-03-23T05:00:02;17.30;;;8.90;;
80586;SDS011;69943;20.850;106.728;2024-03-23T05:02:48;22.60;;;9.60;;
80586;SDS011;69943;20.850;106.728;2024-03-23T05:08:15;23.90;;;10.10;;
80586;SDS011;69943;20.850;106.728;2024-03-23T05:10:48;16.40;;;8.70;;
80586;SDS011;69943;20.850;106.728;2024-03-23T05:13:21;24.00;;;10.70;;
80586;SDS011;69943;20.850;106.728;2024-03-23T05:15:54;23.80;;;10.00;;
80586;SDS011;69943;20.850;106.728;2024-03-23T05:18:27;24.70;;;10.80;;
80586;SDS011;69943;20.850;106.728;2024-03-23T05:21:01;20.40;;;9.10;;
80586;SDS011;69943;20.850;106.728;2024-03-23T05:23:34;18.70;;;9.00;;
80586;SDS011;69943;20.850;106.728;2024-03-23T05:26:06;21.30;;;9.50;;
80586;SDS011;69943;20.850;106.728;2024-03-23T05:28:39;21.30;;;9.50;;
80586;SDS011;69943;20.850;106.728;2024-03-23T05:31:12;21.60;;;9.50;;
80586;SDS011;69943;20.850;106.728;2024-03-23T05:33:54;20.70;;;8.90;;
80586;SDS011;69943;20.850;106.728;2024-03-23T05:36:27;21.00;;;10.10;;
80586;SDS011;69943;20.850;106.728;2024-03-23T05:38:59;23.40;;;10.30;;
80586;SDS011;69943;20.850;106.728;2024-03-23T05:41:32;29.80;;;11.40;;
80586;SDS011;69943;20.850;106.728;2024-03-23T05:44:07;29.20;;;10.40;;
80586;SDS011;69943;20.850;106.728;2024-03-23T05:46:39;22.50;;;9.90;;
80586;SDS011;69943;20.850;106.728;2024-03-23T05:49:13;27.10;;;10.10;;
80586;SDS011;69943;20.850;106.728;2024-03-23T05:51:46;19.00;;;11.00;;
80586;SDS011;69943;20.850;106.728;2024-03-23T05:54:19;21.40;;;9.80;;
80586;SDS011;69943;20.850;106.728;2024-03-23T05:56:55;26.60;;;11.00;;
80586;SDS011;69943;20.850;106.728;2024-03-23T05:59:29;19.50;;;9.30;;
80586;SDS011;69943;20.850;106.728;2024-03-23T06:02:02;21.90;;;9.90;;
80586;SDS011;69943;20.850;106.728;2024-03-23T06:04:36;25.50;;;10.50;;
80586;SDS011;69943;20.850;106.728;2024-03-23T06:07:09;30.60;;;10.10;;
80586;SDS011;69943;20.850;106.728;2024-03-23T06:09:45;23.70;;;10.50;;
80586;SDS011;69943;20.850;106.728;2024-03-23T06:12:18;22.00;;;10.60;;
80586;SDS011;69943;20.850;106.728;2024-03-23T06:14:52;21.90;;;10.50;;
80586;SDS011;69943;20.850;106.728;2024-03-23T06:17:25;23.10;;;10.10;;
80586;SDS011;69943;20.850;106.728;2024-03-23T06:19:57;27.80;;;11.60;;
80586;SDS011;69943;20.850;106.728;2024-03-23T06:22:30;23.50;;;9.60;;
80586;SDS011;69943;20.850;106.728;2024-03-23T06:25:03;25.60;;;9.40;;
80586;SDS011;69943;20.850;106.728;2024-03-23T06:27:36;26.40;;;10.90;;
80586;SDS011;69943;20.850;106.728;2024-03-23T06:30:10;26.80;;;10.10;;
80586;SDS011;69943;20.850;106.728;2024-03-23T06:32:43;26.50;;;10.70;;
80586;SDS011;69943;20.850;106.728;2024-03-23T06:35:17;24.00;;;10.00;;
80586;SDS011;69943;20.850;106.728;2024-03-23T06:37:50;26.00;;;10.80;;
80586;SDS011;69943;20.850;106.728;2024-03-23T06:40:22;24.30;;;10.00;;
80586;SDS011;69943;20.850;106.728;2024-03-23T06:42:55;26.60;;;9.70;;
80586;SDS011;69943;20.850;106.728;2024-03-23T06:45:28;25.20;;;9.00;;
80586;SDS011;69943;20.850;106.728;2024-03-23T06:48:01;24.20;;;9.90;;
80586;SDS011;69943;20.850;106.728;2024-03-23T06:50:34;20.20;;;10.10;;
80586;SDS011;69943;20.850;106.728;2024-03-23T06:53:07;21.20;;;8.90;;
80586;SDS011;69943;20.850;106.728;2024-03-23T06:55:40;23.60;;;9.90;;
80586;SDS011;69943;20.850;106.728;2024-03-23T07:01:04;19.20;;;8.80;;
80586;SDS011;69943;20.850;106.728;2024-03-23T07:03:38;23.00;;;9.90;;
80586;SDS011;69943;20.850;106.728;2024-03-23T07:06:10;22.80;;;9.40;;
80586;SDS011;69943;20.850;106.728;2024-03-23T07:08:50;27.30;;;10.20;;
80586;SDS011;69943;20.850;106.728;2024-03-23T07:11:24;29.50;;;10.90;;
80586;SDS011;69943;20.850;106.728;2024-03-23T07:13:57;22.90;;;9.00;;
80586;SDS011;69943;20.850;106.728;2024-03-23T07:16:30;28.00;;;10.30;;
80586;SDS011;69943;20.850;106.728;2024-03-23T07:19:04;24.80;;;11.10;;
80586;SDS011;69943;20.850;106.728;2024-03-23T07:21:37;28.10;;;11.30;;
80586;SDS011;69943;20.850;106.728;2024-03-23T07:24:10;27.50;;;10.70;;
80586;SDS011;69943;20.850;106.728;2024-03-23T07:26:43;26.80;;;9.90;;
80586;SDS011;69943;20.850;106.728;2024-03-23T07:29:16;23.60;;;10.30;;
80586;SDS011;69943;20.850;106.728;2024-03-23T07:31:50;23.00;;;9.00;;
80586;SDS011;69943;20.850;106.728;2024-03-23T07:34:24;27.20;;;10.90;;
80586;SDS011;69943;20.850;106.728;2024-03-23T07:36:57;22.50;;;9.30;;
80586;SDS011;69943;20.850;106.728;2024-03-23T07:39:29;23.40;;;9.40;;
80586;SDS011;69943;20.850;106.728;2024-03-23T07:42:04;20.80;;;8.60;;
80586;SDS011;69943;20.850;106.728;2024-03-23T07:44:37;20.80;;;9.00;;
80586;SDS011;69943;20.850;106.728;2024-03-23T07:47:09;22.60;;;8.30;;
80586;SDS011;69943;20.850;106.728;2024-03-23T07:49:43;16.20;;;8.30;;
80586;SDS011;69943;20.850;106.728;2024-03-23T07:52:16;28.30;;;9.90;;
80586;SDS011;69943;20.850;106.728;2024-03-23T07:54:49;26.30;;;10.10;;
80586;SDS011;69943;20.850;106.728;2024-03-23T07:57:22;20.20;;;8.90;;
80586;SDS011;69943;20.850;106.728;2024-03-23T07:59:57;15.60;;;8.60;;
80586;SDS011;69943;20.850;106.728;2024-03-23T08:02:31;22.70;;;9.50;;
80586;SDS011;69943;20.850;106.728;2024-03-23T08:05:04;23.70;;;8.70;;
80586;SDS011;69943;20.850;106.728;2024-03-23T08:07:36;25.30;;;9.10;;
80586;SDS011;69943;20.850;106.728;2024-03-23T08:10:09;18.50;;;9.00;;
80586;SDS011;69943;20.850;106.728;2024-03-23T08:12:45;20.00;;;8.40;;
80586;SDS011;69943;20.850;106.728;2024-03-23T08:17:51;25.70;;;9.30;;
80586;SDS011;69943;20.850;106.728;2024-03-23T08:20:24;15.40;;;8.30;;
80586;SDS011;69943;20.850;106.728;2024-03-23T08:22:58;27.80;;;9.40;;
80586;SDS011;69943;20.850;106.728;2024-03-23T08:25:31;19.10;;;8.90;;
80586;SDS011;69943;20.850;106.728;2024-03-23T08:28:04;21.90;;;9.40;;
80586;SDS011;69943;20.850;106.728;2024-03-23T08:30:39;19.00;;;9.30;;
80586;SDS011;69943;20.850;106.728;2024-03-23T08:33:11;22.30;;;9.30;;
80586;SDS011;69943;20.850;106.728;2024-03-23T08:35:56;17.90;;;8.00;;
80586;SDS011;69943;20.850;106.728;2024-03-23T08:38:30;18.60;;;8.40;;
80586;SDS011;69943;20.850;106.728;2024-03-23T08:41:05;16.90;;;7.80;;
80586;SDS011;69943;20.850;106.728;2024-03-23T08:43:40;28.10;;;8.90;;
80586;SDS011;69943;20.850;106.728;2024-03-23T08:46:14;17.40;;;9.10;;
80586;SDS011;69943;20.850;106.728;2024-03-23T08:48:47;27.20;;;9.70;;
80586;SDS011;69943;20.850;106.728;2024-03-23T08:51:22;15.70;;;7.80;;
80586;SDS011;69943;20.850;106.728;2024-03-23T08:53:55;20.90;;;9.10;;
80586;SDS011;69943;20.850;106.728;2024-03-23T08:56:28;13.30;;;7.60;;
80586;SDS011;69943;20.850;106.728;2024-03-23T08:59:01;25.70;;;10.10;;
80586;SDS011;69943;20.850;106.728;2024-03-23T09:01:34;16.30;;;8.20;;
80586;SDS011;69943;20.850;106.728;2024-03-23T09:04:07;18.80;;;9.40;;
80586;SDS011;69943;20.850;106.728;2024-03-23T09:06:43;19.50;;;7.50;;
80586;SDS011;69943;20.850;106.728;2024-03-23T09:09:16;17.20;;;9.10;;
80586;SDS011;69943;20.850;106.728;2024-03-23T09:11:49;21.80;;;9.10;;
80586;SDS011;69943;20.850;106.728;2024-03-23T09:14:23;24.60;;;9.80;;
80586;SDS011;69943;20.850;106.728;2024-03-23T09:16:55;18.00;;;8.20;;
80586;SDS011;69943;20.850;106.728;2024-03-23T09:19:30;21.40;;;8.10;;
80586;SDS011;69943;20.850;106.728;2024-03-23T09:22:02;13.50;;;7.20;;
80586;SDS011;69943;20.850;106.728;2024-03-23T09:24:35;13.90;;;7.70;;
80586;SDS011;69943;20.850;106.728;2024-03-23T09:27:08;17.00;;;7.10;;
80586;SDS011;69943;20.850;106.728;2024-03-23T09:29:41;23.80;;;9.50;;
80586;SDS011;69943;20.850;106.728;2024-03-23T09:32:14;15.10;;;8.20;;
80586;SDS011;69943;20.850;106.728;2024-03-23T09:34:47;20.10;;;8.60;;
80586;SDS011;69943;20.850;106.728;2024-03-23T09:37:20;18.10;;;8.90;;
80586;SDS011;69943;20.850;106.728;2024-03-23T09:39:53;15.10;;;8.20;;
80586;SDS011;69943;20.850;106.728;2024-03-23T09:42:27;17.40;;;8.60;;
80586;SDS011;69943;20.850;106.728;2024-03-23T09:44:59;15.80;;;8.00;;
80586;SDS011;69943;20.850;106.728;2024-03-23T09:47:33;11.00;;;7.90;;
80586;SDS011;69943;20.850;106.728;2024-03-23T09:50:10;22.70;;;9.00;;
80586;SDS011;69943;20.850;106.728;2024-03-23T09:52:43;15.10;;;7.60;;
80586;SDS011;69943;20.850;106.728;2024-03-23T09:55:18;15.60;;;7.60;;
80586;SDS011;69943;20.850;106.728;2024-03-23T09:57:57;16.50;;;8.50;;
80586;SDS011;69943;20.850;106.728;2024-03-23T10:00:48;16.40;;;7.80;;
80586;SDS011;69943;20.850;106.728;2024-03-23T10:03:20;17.50;;;7.80;;
80586;SDS011;69943;20.850;106.728;2024-03-23T10:06:03;16.70;;;7.70;;
80586;SDS011;69943;20.850;106.728;2024-03-23T10:08:38;14.40;;;7.70;;
80586;SDS011;69943;20.850;106.728;2024-03-23T10:11:14;19.30;;;9.20;;
80586;SDS011;69943;20.850;106.728;2024-03-23T10:13:48;14.50;;;7.90;;
80586;SDS011;69943;20.850;106.728;2024-03-23T10:16:22;15.60;;;7.50;;
80586;SDS011;69943;20.850;106.728;2024-03-23T10:19:02;19.00;;;7.80;;
80586;SDS011;69943;20.850;106.728;2024-03-23T10:21:35;22.00;;;10.10;;
80586;SDS011;69943;20.850;106.728;2024-03-23T10:24:08;17.20;;;7.80;;
80586;SDS011;69943;20.850;106.728;2024-03-23T10:26:41;20.50;;;8.90;;
80586;SDS011;69943;20.850;106.728;2024-03-23T10:29:14;16.60;;;8.20;;
80586;SDS011;69943;20.850;106.728;2024-03-23T10:31:53;16.90;;;8.00;;
80586;SDS011;69943;20.850;106.728;2024-03-23T10:34:26;20.90;;;8.20;;
80586;SDS011;69943;20.850;106.728;2024-03-23T10:37:00;14.40;;;7.10;;
80586;SDS011;69943;20.850;106.728;2024-03-23T10:39:38;16.10;;;8.20;;
80586;SDS011;69943;20.850;106.728;2024-03-23T10:42:11;16.00;;;7.70;;
80586;SDS011;69943;20.850;106.728;2024-03-23T10:44:46;15.80;;;7.90;;
80586;SDS011;69943;20.850;106.728;2024-03-23T10:47:19;14.00;;;7.40;;
80586;SDS011;69943;20.850;106.728;2024-03-23T10:49:52;11.10;;;7.30;;
80586;SDS011;69943;20.850;106.728;2024-03-23T10:52:25;14.60;;;7.90;;
80586;SDS011;69943;20.850;106.728;2024-03-23T10:54:58;12.40;;;8.00;;
80586;SDS011;69943;20.850;106.728;2024-03-23T10:57:37;19.80;;;8.80;;
80586;SDS011;69943;20.850;106.728;2024-03-23T11:00:12;14.20;;;7.90;;
80586;SDS011;69943;20.850;106.728;2024-03-23T11:02:46;13.00;;;7.30;;
80586;SDS011;69943;20.850;106.728;2024-03-23T11:07:57;13.70;;;8.00;;
80586;SDS011;69943;20.850;106.728;2024-03-23T11:10:30;12.90;;;6.80;;
80586;SDS011;69943;20.850;106.728;2024-03-23T11:13:23;13.30;;;8.10;;
80586;SDS011;69943;20.850;106.728;2024-03-23T11:15:56;11.30;;;7.70;;
80586;SDS011;69943;20.850;106.728;2024-03-23T11:22:08;11.30;;;7.60;;
80586;SDS011;69943;20.850;106.728;2024-03-23T11:24:41;11.00;;;8.00;;
80586;SDS011;69943;20.850;106.728;2024-03-23T11:27:17;11.40;;;7.80;;
80586;SDS011;69943;20.850;106.728;2024-03-23T11:29:51;10.00;;;7.00;;
80586;SDS011;69943;20.850;106.728;2024-03-23T11:32:24;12.60;;;7.80;;
80586;SDS011;69943;20.850;106.728;2024-03-23T11:34:56;12.30;;;7.60;;
80586;SDS011;69943;20.850;106.728;2024-03-23T11:37:29;12.50;;;8.40;;
80586;SDS011;69943;20.850;106.728;2024-03-23T11:40:16;13.80;;;8.00;;
80586;SDS011;69943;20.850;106.728;2024-03-23T11:42:55;14.60;;;7.40;;
80586;SDS011;69943;20.850;106.728;2024-03-23T11:45:29;10.90;;;6.60;;
80586;SDS011;69943;20.850;106.728;2024-03-23T11:48:15;12.40;;;7.70;;
80586;SDS011;69943;20.850;106.728;2024-03-23T11:50:56;15.00;;;8.20;;
80586;SDS011;69943;20.850;106.728;2024-03-23T11:53:29;15.20;;;7.40;;
80586;SDS011;69943;20.850;106.728;2024-03-23T11:56:02;15.50;;;8.40;;
80586;SDS011;69943;20.850;106.728;2024-03-23T12:01:22;13.70;;;7.20;;
80586;SDS011;69943;20.850;106.728;2024-03-23T12:03:55;11.60;;;7.80;;
80586;SDS011;69943;20.850;106.728;2024-03-23T12:06:28;12.40;;;7.20;;
80586;SDS011;69943;20.850;106.728;2024-03-23T12:09:07;11.30;;;7.00;;
80586;SDS011;69943;20.850;106.728;2024-03-23T12:11:40;11.10;;;7.70;;
80586;SDS011;69943;20.850;106.728;2024-03-23T12:14:17;12.60;;;7.90;;
80586;SDS011;69943;20.850;106.728;2024-03-23T12:16:49;12.90;;;7.60;;
80586;SDS011;69943;20.850;106.728;2024-03-23T12:19:22;16.10;;;8.50;;
80586;SDS011;69943;20.850;106.728;2024-03-23T12:21:55;13.70;;;8.20;;
80586;SDS011;69943;20.850;106.728;2024-03-23T12:24:28;14.80;;;7.70;;
80586;SDS011;69943;20.850;106.728;2024-03-23T12:27:02;13.20;;;8.60;;
80586;SDS011;69943;20.850;106.728;2024-03-23T12:29:38;11.80;;;7.90;;
80586;SDS011;69943;20.850;106.728;2024-03-23T12:32:13;17.50;;;8.90;;
80586;SDS011;69943;20.850;106.728;2024-03-23T12:34:46;10.60;;;7.00;;
80586;SDS011;69943;20.850;106.728;2024-03-23T12:37:19;10.70;;;7.60;;
80586;SDS011;69943;20.850;106.728;2024-03-23T12:39:51;15.50;;;7.70;;
80586;SDS011;69943;20.850;106.728;2024-03-23T12:42:24;13.30;;;8.60;;
80586;SDS011;69943;20.850;106.728;2024-03-23T12:44:56;10.50;;;7.20;;
80586;SDS011;69943;20.850;106.728;2024-03-23T12:47:32;10.60;;;8.10;;
80586;SDS011;69943;20.850;106.728;2024-03-23T12:50:05;12.40;;;7.80;;
80586;SDS011;69943;20.850;106.728;2024-03-23T12:52:38;12.00;;;7.40;;
80586;SDS011;69943;20.850;106.728;2024-03-23T12:55:10;12.00;;;7.20;;
80586;SDS011;69943;20.850;106.728;2024-03-23T12:57:43;13.50;;;8.10;;
80586;SDS011;69943;20.850;106.728;2024-03-23T13:00:16;15.80;;;7.70;;
80586;SDS011;69943;20.850;106.728;2024-03-23T13:02:49;13.60;;;7.80;;
80586;SDS011;69943;20.850;106.728;2024-03-23T13:05:21;12.10;;;8.00;;
80586;SDS011;69943;20.850;106.728;2024-03-23T13:07:54;10.30;;;7.30;;
80586;SDS011;69943;20.850;106.728;2024-03-23T13:10:27;13.50;;;8.00;;
80586;SDS011;69943;20.850;106.728;2024-03-23T13:13:01;16.60;;;8.10;;
80586;SDS011;69943;20.850;106.728;2024-03-23T13:15:34;11.60;;;7.80;;
80586;SDS011;69943;20.850;106.728;2024-03-23T13:18:07;10.40;;;7.60;;
80586;SDS011;69943;20.850;106.728;2024-03-23T13:20:40;11.60;;;7.70;;
80586;SDS011;69943;20.850;106.728;2024-03-23T13:23:12;15.50;;;8.60;;
80586;SDS011;69943;20.850;106.728;2024-03-23T13:25:54;10.90;;;7.80;;
80586;SDS011;69943;20.850;106.728;2024-03-23T13:28:27;12.40;;;7.90;;
80586;SDS011;69943;20.850;106.728;2024-03-23T13:31:00;13.60;;;8.30;;
80586;SDS011;69943;20.850;106.728;2024-03-23T13:33:35;12.50;;;7.30;;
80586;SDS011;69943;20.850;106.728;2024-03-23T13:36:08;12.10;;;7.80;;
80586;SDS011;69943;20.850;106.728;2024-03-23T13:38:41;12.30;;;8.30;;
80586;SDS011;69943;20.850;106.728;2024-03-23T13:41:14;13.10;;;7.40;;
80586;SDS011;69943;20.850;106.728;2024-03-23T13:43:47;12.60;;;8.10;;
80586;SDS011;69943;20.850;106.728;2024-03-23T13:46:25;11.30;;;8.00;;
80586;SDS011;69943;20.850;106.728;2024-03-23T13:49:07;13.90;;;7.90;;
80586;SDS011;69943;20.850;106.728;2024-03-23T13:52:00;16.30;;;9.10;;
80586;SDS011;69943;20.850;106.728;2024-03-23T13:54:33;14.30;;;8.50;;
80586;SDS011;69943;20.850;106.728;2024-03-23T13:57:06;12.90;;;8.20;;
80586;SDS011;69943;20.850;106.728;2024-03-23T13:59:39;10.70;;;8.70;;
80586;SDS011;69943;20.850;106.728;2024-03-23T14:02:12;12.00;;;7.90;;
80586;SDS011;69943;20.850;106.728;2024-03-23T14:04:46;12.40;;;7.50;;
80586;SDS011;69943;20.850;106.728;2024-03-23T14:07:19;10.40;;;7.40;;
80586;SDS011;69943;20.850;106.728;2024-03-23T14:09:52;9.40;;;7.80;;
80586;SDS011;69943;20.850;106.728;2024-03-23T14:12:30;12.60;;;8.60;;
80586;SDS011;69943;20.850;106.728;2024-03-23T14:15:06;12.60;;;7.80;;
80586;SDS011;69943;20.850;106.728;2024-03-23T14:17:40;11.40;;;7.70;;
80586;SDS011;69943;20.850;106.728;2024-03-23T14:20:13;16.20;;;8.10;;
80586;SDS011;69943;20.850;106.728;2024-03-23T14:22:47;11.90;;;8.10;;
80586;SDS011;69943;20.850;106.728;2024-03-23T14:25:20;12.00;;;8.10;;
80586;SDS011;69943;20.850;106.728;2024-03-23T14:27:58;11.50;;;8.00;;
80586;SDS011;69943;20.850;106.728;2024-03-23T14:30:31;12.40;;;8.20;;
80586;SDS011;69943;20.850;106.728;2024-03-23T14:33:04;11.90;;;8.10;;
80586;SDS011;69943;20.850;106.728;2024-03-23T14:35:37;11.30;;;8.20;;
80586;SDS011;69943;20.850;106.728;2024-03-23T14:38:11;13.00;;;9.20;;
80586;SDS011;69943;20.850;106.728;2024-03-23T14:40:44;12.70;;;7.80;;
80586;SDS011;69943;20.850;106.728;2024-03-23T14:46:11;10.90;;;8.40;;
80586;SDS011;69943;20.850;106.728;2024-03-23T14:48:48;13.70;;;9.10;;
80586;SDS011;69943;20.850;106.728;2024-03-23T14:51:21;13.10;;;7.90;;
80586;SDS011;69943;20.850;106.728;2024-03-23T14:53:54;9.70;;;7.80;;
80586;SDS011;69943;20.850;106.728;2024-03-23T14:56:27;13.00;;;8.60;;
80586;SDS011;69943;20.850;106.728;2024-03-23T14:59:00;10.00;;;8.90;;
80586;SDS011;69943;20.850;106.728;2024-03-23T15:01:34;9.60;;;7.60;;
80586;SDS011;69943;20.850;106.728;2024-03-23T15:04:07;13.30;;;9.30;;
80586;SDS011;69943;20.850;106.728;2024-03-23T15:06:41;11.10;;;8.00;;
80586;SDS011;69943;20.850;106.728;2024-03-23T15:09:17;15.40;;;9.40;;
80586;SDS011;69943;20.850;106.728;2024-03-23T15:11:50;10.30;;;7.70;;
80586;SDS011;69943;20.850;106.728;2024-03-23T15:14:26;13.20;;;8.00;;
80586;SDS011;69943;20.850;106.728;2024-03-23T15:16:59;11.10;;;8.10;;
80586;SDS011;69943;20.850;106.728;2024-03-23T15:19:36;11.60;;;8.60;;
80586;SDS011;69943;20.850;106.728;2024-03-23T15:22:09;12.00;;;9.60;;
80586;SDS011;69943;20.850;106.728;2024-03-23T15:24:42;11.40;;;7.90;;
80586;SDS011;69943;20.850;106.728;2024-03-23T15:27:16;12.40;;;8.40;;
80586;SDS011;69943;20.850;106.728;2024-03-23T15:29:49;16.60;;;8.30;;
80586;SDS011;69943;20.850;106.728;2024-03-23T15:32:22;14.90;;;8.30;;
80586;SDS011;69943;20.850;106.728;2024-03-23T15:34:55;12.50;;;8.00;;
80586;SDS011;69943;20.850;106.728;2024-03-23T15:37:28;10.80;;;8.40;;
80586;SDS011;69943;20.850;106.728;2024-03-23T15:40:01;10.00;;;8.40;;
80586;SDS011;69943;20.850;106.728;2024-03-23T15:42:34;12.20;;;9.00;;
80586;SDS011;69943;20.850;106.728;2024-03-23T15:45:07;10.90;;;8.60;;
80586;SDS011;69943;20.850;106.728;2024-03-23T15:47:43;12.40;;;9.00;;
80586;SDS011;69943;20.850;106.728;2024-03-23T15:50:16;11.90;;;9.20;;
80586;SDS011;69943;20.850;106.728;2024-03-23T15:52:49;13.90;;;9.00;;
80586;SDS011;69943;20.850;106.728;2024-03-23T15:55:22;12.90;;;8.10;;
80586;SDS011;69943;20.850;106.728;2024-03-23T15:57:55;12.80;;;9.50;;
80586;SDS011;69943;20.850;106.728;2024-03-23T16:00:28;14.80;;;8.70;;
80586;SDS011;69943;20.850;106.728;2024-03-23T16:03:01;11.40;;;8.50;;
80586;SDS011;69943;20.850;106.728;2024-03-23T16:05:34;12.80;;;8.70;;
80586;SDS011;69943;20.850;106.728;2024-03-23T16:08:07;10.80;;;8.50;;